Time;durP1;ratioP1;P1;durP2;ratioP2;P2;SDS_P1;SDS_P2;PMS_P1;PMS_P2;Temp;Humidity;BMP_temperature;BMP_pressure;BME280_temperature;BME280_humidity;BME280_pressure;Samples;Min_cycle;Max_cycle;Signal;HPM_P1;HPM_P2
2023/05/24 00:02:22;;;;;;;14.00;3.28;;;;;;;;;;5095770;28;20020;-65
2023/05/24 00:04:48;;;;;;;13.40;2.60;;;;;;;;;;5095865;28;20372;-66
2023/05/24 00:07:15;;;;;;;15.88;3.30;;;;;;;;;;5095181;28;20122;-65
2023/05/24 00:09:41;;;;;;;16.73;3.88;;;;;;;;;;5094340;28;20055;-63
2023/05/24 00:12:07;;;;;;;15.30;3.17;;;;;;;;;;5095431;28;20461;-63
2023/05/24 00:14:33;;;;;;;16.95;3.55;;;;;;;;;;5095263;28;20062;-63
2023/05/24 00:17:00;;;;;;;15.00;3.67;;;;;;;;;;5094258;28;20077;-64
2023/05/24 00:19:26;;;;;;;13.90;2.90;;;;;;;;;;5095495;28;20028;-64
2023/05/24 00:21:52;;;;;;;13.07;3.05;;;;;;;;;;5095287;28;20389;-63
2023/05/24 00:24:18;;;;;;;20.20;3.58;;;;;;;;;;5095289;28;20020;-64
2023/05/24 00:26:44;;;;;;;10.88;2.90;;;;;;;;;;5095194;28;20032;-63
2023/05/24 00:29:12;;;;;;;15.50;3.13;;;;;;;;;;5094982;28;20032;-65
2023/05/24 00:31:38;;;;;;;12.82;2.83;;;;;;;;;;5094026;28;20028;-64
2023/05/24 00:34:06;;;;;;;12.40;2.67;;;;;;;;;;5095017;28;20032;-63
2023/05/24 00:36:33;;;;;;;14.02;3.30;;;;;;;;;;5093509;28;20059;-65
2023/05/24 00:38:59;;;;;;;15.55;2.92;;;;;;;;;;5101159;28;20412;-64
2023/05/24 00:41:25;;;;;;;11.55;3.20;;;;;;;;;;5084555;28;20063;-64
2023/05/24 00:43:52;;;;;;;16.75;3.45;;;;;;;;;;5094368;28;20051;-65
2023/05/24 00:46:21;;;;;;;15.27;3.13;;;;;;;;;;5094452;28;20032;-63
2023/05/24 00:48:48;;;;;;;17.08;3.25;;;;;;;;;;5092785;28;20024;-63
2023/05/24 00:51:15;;;;;;;13.30;3.20;;;;;;;;;;5094506;28;20036;-63
2023/05/24 00:53:43;;;;;;;18.25;3.25;;;;;;;;;;5094480;28;20611;-63
2023/05/24 00:56:10;;;;;;;11.40;3.58;;;;;;;;;;5094661;28;20024;-63
2023/05/24 00:58:35;;;;;;;13.20;2.75;;;;;;;;;;5094103;28;20112;-63
2023/05/24 01:01:02;;;;;;;13.63;2.67;;;;;;;;;;5093360;28;20040;-64
2023/05/24 01:03:29;;;;;;;14.70;3.03;;;;;;;;;;5094459;28;20027;-64
2023/05/24 01:06:02;;;;;;;16.38;3.63;;;;;;;;;;5094502;28;20600;-63
2023/05/24 01:08:41;;;;;;;15.15;3.05;;;;;;;;;;5094377;28;20034;-64
2023/05/24 01:11:09;;;;;;;22.70;3.70;;;;;;;;;;5094502;28;20020;-63
2023/05/24 01:13:53;;;;;;;16.80;2.70;;;;;;;;;;5094242;28;20470;-64
2023/05/24 01:16:25;;;;;;;14.30;3.35;;;;;;;;;;5094341;28;20032;-64
2023/05/24 01:18:59;;;;;;;11.05;2.53;;;;;;;;;;5094448;28;20020;-63
2023/05/24 01:21:55;;;;;;;12.57;3.03;;;;;;;;;;5093048;28;20047;-64
2023/05/24 01:24:57;;;;;;;13.45;3.10;;;;;;;;;;5093846;28;20052;-63
2023/05/24 01:27:23;;;;;;;11.73;2.35;;;;;;;;;;5030715;28;20055;-64
2023/05/24 01:29:52;;;;;;;18.88;2.92;;;;;;;;;;5032015;28;20109;-65
2023/05/24 01:32:20;;;;;;;21.13;3.45;;;;;;;;;;5023784;28;20069;-64
2023/05/24 01:34:46;;;;;;;14.77;3.22;;;;;;;;;;5021003;28;20025;-64
2023/05/24 01:37:11;;;;;;;12.55;2.65;;;;;;;;;;5031693;28;20121;-65
2023/05/24 01:39:37;;;;;;;17.58;3.08;;;;;;;;;;5031631;28;20046;-65
2023/05/24 01:42:11;;;;;;;17.65;3.17;;;;;;;;;;5031547;28;20033;-71
2023/05/24 01:44:42;;;;;;;10.30;1.92;;;;;;;;;;5031514;28;20057;-69
2023/05/24 01:47:33;;;;;;;11.00;2.20;;;;;;;;;;5030616;28;20091;-71
2023/05/24 01:50:09;;;;;;;10.27;2.30;;;;;;;;;;5031780;28;20029;-70
2023/05/24 01:52:35;;;;;;;13.02;2.47;;;;;;;;;;5031532;28;20525;-70
2023/05/24 01:55:02;;;;;;;14.52;2.75;;;;;;;;;;5031412;28;20136;-70
2023/05/24 01:57:28;;;;;;;14.80;3.05;;;;;;;;;;5031362;28;20158;-72
2023/05/24 01:59:55;;;;;;;16.63;2.35;;;;;;;;;;5031533;28;20452;-71
2023/05/24 02:02:20;;;;;;;14.65;2.53;;;;;;;;;;5031396;28;20039;-72
2023/05/24 02:04:46;;;;;;;14.40;2.65;;;;;;;;;;5058000;28;20119;-70
2023/05/24 02:07:12;;;;;;;8.77;2.08;;;;;;;;;;5073375;28;20020;-63
2023/05/24 02:09:37;;;;;;;12.07;2.40;;;;;;;;;;5073388;28;20028;-68
2023/05/24 02:12:03;;;;;;;15.65;3.13;;;;;;;;;;5072996;28;20029;-65
2023/05/24 02:14:28;;;;;;;14.65;3.00;;;;;;;;;;5073293;28;20067;-72
2023/05/24 02:16:57;;;;;;;13.25;3.00;;;;;;;;;;5073094;28;20063;-64
2023/05/24 02:19:23;;;;;;;14.55;3.00;;;;;;;;;;5073105;28;20074;-66
2023/05/24 02:21:48;;;;;;;20.67;3.15;;;;;;;;;;5088515;28;20032;-64
2023/05/24 02:24:14;;;;;;;11.10;2.25;;;;;;;;;;5076685;28;20069;-69
2023/05/24 02:26:39;;;;;;;14.63;3.03;;;;;;;;;;5092987;28;20020;-67
2023/05/24 02:29:05;;;;;;;10.40;2.60;;;;;;;;;;5093055;28;20428;-65
2023/05/24 02:31:31;;;;;;;14.20;3.55;;;;;;;;;;5093218;28;20096;-65
2023/05/24 02:33:57;;;;;;;12.35;2.75;;;;;;;;;;5093035;28;20039;-64
2023/05/24 02:36:23;;;;;;;12.18;3.03;;;;;;;;;;5092953;28;20024;-64
2023/05/24 02:38:51;;;;;;;12.07;2.63;;;;;;;;;;5099262;28;20099;-64
2023/05/24 02:41:17;;;;;;;12.30;3.20;;;;;;;;;;5113091;28;20092;-65
2023/05/24 02:43:46;;;;;;;11.25;2.58;;;;;;;;;;5113259;28;20461;-64
2023/05/24 02:46:13;;;;;;;14.13;2.78;;;;;;;;;;5112969;28;20043;-64
2023/05/24 02:48:39;;;;;;;17.67;3.38;;;;;;;;;;5113164;28;20028;-64
2023/05/24 02:51:05;;;;;;;12.68;2.42;;;;;;;;;;5113253;28;20549;-67
2023/05/24 02:53:31;;;;;;;14.50;3.40;;;;;;;;;;5113154;28;20381;-67
2023/05/24 02:55:57;;;;;;;8.43;1.92;;;;;;;;;;5112903;28;20472;-69
2023/05/24 02:58:23;;;;;;;8.35;2.30;;;;;;;;;;5113010;28;20035;-64
2023/05/24 03:00:49;;;;;;;14.02;2.70;;;;;;;;;;5113062;28;20076;-64
2023/05/24 03:03:15;;;;;;;14.18;3.10;;;;;;;;;;5113253;28;20350;-64
2023/05/24 03:05:40;;;;;;;11.15;2.58;;;;;;;;;;5112215;28;20032;-65
2023/05/24 03:08:06;;;;;;;11.40;2.70;;;;;;;;;;5112985;28;20023;-64
2023/05/24 03:10:31;;;;;;;12.27;2.45;;;;;;;;;;5112742;28;20019;-64
2023/05/24 03:12:57;;;;;;;15.30;3.08;;;;;;;;;;5113040;28;20106;-66
2023/05/24 03:15:22;;;;;;;15.65;3.05;;;;;;;;;;5113197;28;20024;-64
2023/05/24 03:17:48;;;;;;;12.40;2.50;;;;;;;;;;5113048;28;20026;-64
2023/05/24 03:20:14;;;;;;;16.55;3.15;;;;;;;;;;5113035;28;20032;-64
2023/05/24 03:22:40;;;;;;;13.00;2.63;;;;;;;;;;5112960;28;20036;-64
2023/05/24 03:25:07;;;;;;;14.77;3.28;;;;;;;;;;5101660;28;20385;-63
2023/05/24 03:27:33;;;;;;;10.57;2.47;;;;;;;;;;5092254;28;20469;-64
2023/05/24 03:29:58;;;;;;;14.23;3.08;;;;;;;;;;5092547;28;20042;-64
2023/05/24 03:32:24;;;;;;;16.50;2.60;;;;;;;;;;5092441;28;20032;-67
2023/05/24 03:34:49;;;;;;;10.43;2.65;;;;;;;;;;5092491;28;20016;-69
2023/05/24 03:37:15;;;;;;;12.93;2.80;;;;;;;;;;5092357;28;20036;-64
2023/05/24 03:39:40;;;;;;;17.25;3.58;;;;;;;;;;5105635;28;20028;-64
2023/05/24 03:42:06;;;;;;;15.82;2.60;;;;;;;;;;5112605;28;20031;-64
2023/05/24 03:44:31;;;;;;;14.18;3.05;;;;;;;;;;5111866;28;20393;-66
2023/05/24 03:46:58;;;;;;;15.50;2.67;;;;;;;;;;5080633;28;20109;-63
2023/05/24 03:49:25;;;;;;;19.77;3.65;;;;;;;;;;5089298;28;20110;-64
2023/05/24 03:51:50;;;;;;;16.67;3.55;;;;;;;;;;5090416;28;20036;-64
2023/05/24 03:54:16;;;;;;;10.75;2.50;;;;;;;;;;5092115;28;20045;-63
2023/05/24 03:56:49;;;;;;;14.35;3.05;;;;;;;;;;5074009;28;20079;-65
2023/05/24 03:59:15;;;;;;;18.33;3.08;;;;;;;;;;5090936;28;20035;-63
2023/05/24 04:01:42;;;;;;;12.13;2.83;;;;;;;;;;5073911;28;20039;-64
2023/05/24 04:04:10;;;;;;;12.20;3.08;;;;;;;;;;5092027;28;20043;-64
2023/05/24 04:06:40;;;;;;;15.02;2.75;;;;;;;;;;5090589;28;20481;-63
2023/05/24 04:09:06;;;;;;;12.70;2.88;;;;;;;;;;5090865;28;20032;-64
2023/05/24 04:11:32;;;;;;;14.95;3.33;;;;;;;;;;5091801;28;20338;-64
2023/05/24 04:13:59;;;;;;;11.50;2.63;;;;;;;;;;5090408;28;20081;-64
2023/05/24 04:16:30;;;;;;;17.45;3.33;;;;;;;;;;5092187;28;20527;-64
2023/05/24 04:18:56;;;;;;;13.15;3.22;;;;;;;;;;5095050;28;20042;-64
2023/05/24 04:21:22;;;;;;;12.98;3.08;;;;;;;;;;5094105;28;20107;-65
2023/05/24 04:23:48;;;;;;;11.95;3.45;;;;;;;;;;5077368;28;20026;-66
2023/05/24 04:26:14;;;;;;;14.63;3.65;;;;;;;;;;5073917;28;20131;-71
2023/05/24 04:28:40;;;;;;;12.82;2.65;;;;;;;;;;5073712;28;20044;-71
2023/05/24 04:31:08;;;;;;;17.42;3.40;;;;;;;;;;5073746;28;20077;-72
2023/05/24 04:33:35;;;;;;;8.65;2.47;;;;;;;;;;5073946;28;20475;-72
2023/05/24 04:36:01;;;;;;;13.15;2.72;;;;;;;;;;5093984;28;20470;-67
2023/05/24 04:38:31;;;;;;;17.95;3.88;;;;;;;;;;5097237;28;20076;-71
2023/05/24 04:40:58;;;;;;;15.70;3.20;;;;;;;;;;5101931;28;20025;-70
2023/05/24 04:43:25;;;;;;;16.13;2.95;;;;;;;;;;5093940;28;20473;-65
2023/05/24 04:45:53;;;;;;;11.02;2.90;;;;;;;;;;5094896;28;20055;-71
2023/05/24 04:48:23;;;;;;;10.95;3.03;;;;;;;;;;5094757;28;20035;-64
2023/05/24 04:50:52;;;;;;;15.27;3.13;;;;;;;;;;5093480;28;20032;-65
2023/05/24 04:53:19;;;;;;;13.48;3.03;;;;;;;;;;5094963;28;20024;-64
2023/05/24 04:55:44;;;;;;;14.27;2.40;;;;;;;;;;5094903;28;20382;-64
2023/05/24 04:58:12;;;;;;;9.82;2.60;;;;;;;;;;5093341;28;20028;-65
2023/05/24 05:00:38;;;;;;;15.70;2.85;;;;;;;;;;5094497;28;20103;-65
2023/05/24 05:03:03;;;;;;;15.68;3.13;;;;;;;;;;5076434;28;20170;-64
2023/05/24 05:05:29;;;;;;;12.90;3.05;;;;;;;;;;5094594;28;20068;-65
2023/05/24 05:07:54;;;;;;;11.05;2.50;;;;;;;;;;5094564;28;20050;-65
2023/05/24 05:10:22;;;;;;;17.88;3.10;;;;;;;;;;5094473;28;20121;-66
2023/05/24 05:12:48;;;;;;;17.25;3.50;;;;;;;;;;5093110;28;20124;-64
2023/05/24 05:15:14;;;;;;;20.10;3.30;;;;;;;;;;5094627;28;20073;-65
2023/05/24 05:17:41;;;;;;;14.45;3.50;;;;;;;;;;5094469;28;20024;-65
2023/05/24 05:20:09;;;;;;;16.70;3.78;;;;;;;;;;5075963;28;20036;-66
2023/05/24 05:22:35;;;;;;;20.65;3.53;;;;;;;;;;5059243;28;20123;-67
2023/05/24 05:25:01;;;;;;;17.75;3.10;;;;;;;;;;5093900;28;20054;-67
2023/05/24 05:27:28;;;;;;;18.58;3.50;;;;;;;;;;5094154;28;20039;-65
2023/05/24 05:29:55;;;;;;;18.42;3.58;;;;;;;;;;5092042;28;20043;-66
2023/05/24 05:32:20;;;;;;;17.40;3.70;;;;;;;;;;5076080;28;20024;-64
2023/05/24 05:34:46;;;;;;;13.40;2.97;;;;;;;;;;5093718;28;20069;-70
2023/05/24 05:37:12;;;;;;;14.95;3.85;;;;;;;;;;5093804;28;20422;-65
2023/05/24 05:39:37;;;;;;;15.35;3.85;;;;;;;;;;5103280;28;20040;-67
2023/05/24 05:42:03;;;;;;;15.45;3.58;;;;;;;;;;5093842;28;20028;-66
2023/05/24 05:44:29;;;;;;;11.70;3.05;;;;;;;;;;5092277;28;20062;-64
2023/05/24 05:46:54;;;;;;;17.90;3.83;;;;;;;;;;5093544;28;20109;-64
2023/05/24 05:49:21;;;;;;;14.20;3.05;;;;;;;;;;5093294;28;20062;-65
2023/05/24 05:51:48;;;;;;;15.10;3.35;;;;;;;;;;5093728;28;20419;-64
2023/05/24 05:54:15;;;;;;;16.95;3.45;;;;;;;;;;5075379;28;20108;-64
2023/05/24 05:56:45;;;;;;;15.30;3.25;;;;;;;;;;5093166;28;20040;-67
2023/05/24 05:59:11;;;;;;;;;;;;;;;;;;5094047;28;20537;-65
2023/05/24 06:01:36;;;;;;;14.02;3.25;;;;;;;;;;5093561;28;20002;-65
2023/05/24 06:04:02;;;;;;;11.70;2.80;;;;;;;;;;5093380;28;20059;-65
2023/05/24 06:06:27;;;;;;;23.38;4.22;;;;;;;;;;5093316;28;20051;-70
2023/05/24 06:08:53;;;;;;;16.75;3.60;;;;;;;;;;5093241;28;20466;-66
2023/05/24 06:11:18;;;;;;;15.05;3.45;;;;;;;;;;5093229;28;20024;-69
2023/05/24 06:13:44;;;;;;;13.00;3.03;;;;;;;;;;5093058;28;20024;-67
2023/05/24 06:16:10;;;;;;;14.32;4.03;;;;;;;;;;5093125;28;20466;-68
2023/05/24 06:18:37;;;;;;;20.98;4.03;;;;;;;;;;5092637;28;20430;-69
2023/05/24 06:21:04;;;;;;;13.25;3.38;;;;;;;;;;5093026;28;20032;-69
2023/05/24 06:23:31;;;;;;;15.00;3.30;;;;;;;;;;5091553;28;20067;-65
2023/05/24 06:26:00;;;;;;;20.35;3.88;;;;;;;;;;5092822;28;20032;-69
2023/05/24 06:28:25;;;;;;;21.55;3.67;;;;;;;;;;5075234;28;20031;-68
2023/05/24 06:30:51;;;;;;;23.63;4.00;;;;;;;;;;5091907;28;20468;-71
2023/05/24 06:33:17;;;;;;;18.63;4.82;;;;;;;;;;5092210;28;20020;-71
2023/05/24 06:35:45;;;;;;;17.38;3.70;;;;;;;;;;5090598;28;20446;-68
2023/05/24 06:38:11;;;;;;;18.98;3.60;;;;;;;;;;5100640;28;20075;-69
2023/05/24 06:40:36;;;;;;;14.82;3.47;;;;;;;;;;5098889;28;20169;-65
2023/05/24 06:43:03;;;;;;;10.70;3.08;;;;;;;;;;5089164;28;20040;-70
2023/05/24 06:45:33;;;;;;;15.95;3.65;;;;;;;;;;5106853;28;20043;-71
2023/05/24 06:47:59;;;;;;;10.10;3.47;;;;;;;;;;5110628;28;20181;-70
2023/05/24 06:50:26;;;;;;;16.63;3.55;;;;;;;;;;5092309;28;20128;-69
2023/05/24 06:52:52;;;;;;;22.40;4.45;;;;;;;;;;5100732;28;20055;-72
2023/05/24 06:55:19;;;;;;;23.35;5.00;;;;;;;;;;5084161;28;20392;-70
2023/05/24 06:57:44;;;;;;;26.10;5.53;;;;;;;;;;5091313;28;20036;-72
2023/05/24 07:00:11;;;;;;;22.73;4.97;;;;;;;;;;5091123;28;20071;-71
2023/05/24 07:02:40;;;;;;;13.95;3.83;;;;;;;;;;5090907;28;20066;-70
2023/05/24 07:05:11;;;;;;;12.98;3.60;;;;;;;;;;5091158;28;20477;-70
2023/05/24 07:07:43;;;;;;;18.00;3.95;;;;;;;;;;5091012;28;20044;-69
2023/05/24 07:10:11;;;;;;;17.77;4.10;;;;;;;;;;5087141;28;20115;-69
2023/05/24 07:12:39;;;;;;;14.82;4.40;;;;;;;;;;5073249;28;20023;-69
2023/05/24 07:15:08;;;;;;;17.25;3.60;;;;;;;;;;5089698;28;20028;-68
2023/05/24 07:17:34;;;;;;;18.92;4.00;;;;;;;;;;5091155;28;20028;-70
2023/05/24 07:20:00;;;;;;;22.73;4.30;;;;;;;;;;5090876;28;20547;-71
2023/05/24 07:22:28;;;;;;;22.25;3.95;;;;;;;;;;5091011;28;20036;-68
2023/05/24 07:24:54;;;;;;;18.75;3.58;;;;;;;;;;5090895;28;20329;-66
2023/05/24 07:27:25;;;;;;;15.77;3.88;;;;;;;;;;5089238;28;20093;-69
2023/05/24 07:29:50;;;;;;;;;;;;;;;;;;5090362;28;20051;-66
2023/05/24 07:32:16;;;;;;;16.90;3.55;;;;;;;;;;5089675;28;19916;-71
2023/05/24 07:34:42;;;;;;;14.98;3.50;;;;;;;;;;5090664;28;20111;-71
2023/05/24 07:37:10;;;;;;;14.40;3.53;;;;;;;;;;5091061;28;20035;-69
2023/05/24 07:39:36;;;;;;;15.45;3.90;;;;;;;;;;5094119;28;20036;-69
2023/05/24 07:42:05;;;;;;;19.52;3.58;;;;;;;;;;5090619;28;20074;-67
2023/05/24 07:44:31;;;;;;;20.92;3.85;;;;;;;;;;5091420;28;20040;-71
2023/05/24 07:46:57;;;;;;;20.98;5.05;;;;;;;;;;5110862;28;20051;-69
2023/05/24 07:49:23;;;;;;;22.85;4.13;;;;;;;;;;5093431;28;20059;-64
2023/05/24 07:51:51;;;;;;;17.05;3.40;;;;;;;;;;5091579;28;20024;-68
2023/05/24 07:54:17;;;;;;;19.65;4.10;;;;;;;;;;5110461;28;20076;-70
2023/05/24 07:56:44;;;;;;;15.68;3.47;;;;;;;;;;5096951;27;20131;-70
2023/05/24 07:59:10;;;;;;;17.40;4.75;;;;;;;;;;5094068;28;20517;-69
2023/05/24 08:01:36;;;;;;;17.45;3.75;;;;;;;;;;5093613;28;20115;-67
2023/05/24 08:04:03;;;;;;;19.98;4.40;;;;;;;;;;5094408;28;20032;-66
2023/05/24 08:06:31;;;;;;;16.05;3.97;;;;;;;;;;5093305;28;20117;-69
2023/05/24 08:08:59;;;;;;;19.42;4.00;;;;;;;;;;5094241;28;20111;-69
2023/05/24 08:11:25;;;;;;;21.15;4.10;;;;;;;;;;5094095;28;20117;-68
2023/05/24 08:13:50;;;;;;;20.58;5.75;;;;;;;;;;5093197;28;20055;-67
2023/05/24 08:16:17;;;;;;;12.05;3.50;;;;;;;;;;5093080;28;20034;-66
2023/05/24 08:18:44;;;;;;;13.27;3.45;;;;;;;;;;5094021;28;21046;-65
2023/05/24 08:21:11;;;;;;;12.02;3.63;;;;;;;;;;5094165;28;20032;-68
2023/05/24 08:23:37;;;;;;;18.25;4.38;;;;;;;;;;5094250;28;20028;-69
2023/05/24 08:26:02;;;;;;;14.52;3.28;;;;;;;;;;5093882;28;20093;-67
2023/05/24 08:28:28;;;;;;;15.90;4.13;;;;;;;;;;5093873;28;20068;-67
2023/05/24 08:30:58;;;;;;;9.38;3.17;;;;;;;;;;5093844;28;20116;-68
2023/05/24 08:33:23;;;;;;;12.13;4.13;;;;;;;;;;5092735;28;20028;-70
2023/05/24 08:35:51;;;;;;;14.20;3.58;;;;;;;;;;5092449;28;20028;-68
2023/05/24 08:38:16;;;;;;;13.48;3.67;;;;;;;;;;5094242;28;20047;-67
2023/05/24 08:40:42;;;;;;;14.18;3.47;;;;;;;;;;5102415;28;20036;-66
2023/05/24 08:43:11;;;;;;;15.18;3.40;;;;;;;;;;5097742;28;20024;-70
2023/05/24 08:45:38;;;;;;;13.85;3.65;;;;;;;;;;5113776;28;20055;-70
2023/05/24 08:48:08;;;;;;;17.73;4.00;;;;;;;;;;5113920;28;20023;-70
2023/05/24 08:50:34;;;;;;;19.10;3.63;;;;;;;;;;5115092;28;20035;-67
2023/05/24 08:53:04;;;;;;;18.63;4.53;;;;;;;;;;5113406;28;20047;-70
2023/05/24 08:55:30;;;;;;;;;;;;;;;;;;5114273;28;20031;-70
2023/05/24 08:57:57;;;;;;;11.85;3.50;;;;;;;;;;5114581;28;20059;-71
2023/05/24 09:00:22;;;;;;;13.85;3.97;;;;;;;;;;5114795;28;20019;-70
2023/05/24 09:02:48;;;;;;;21.75;4.07;;;;;;;;;;5113902;28;20019;-65
2023/05/24 09:05:15;;;;;;;19.60;4.72;;;;;;;;;;5113036;28;20120;-70
2023/05/24 09:07:45;;;;;;;16.33;4.13;;;;;;;;;;5114234;28;20038;-69
2023/05/24 09:10:14;;;;;;;13.75;4.22;;;;;;;;;;5092517;28;20055;-68
2023/05/24 09:12:49;;;;;;;13.65;4.20;;;;;;;;;;5094038;28;20038;-69
2023/05/24 09:15:17;;;;;;;17.55;4.25;;;;;;;;;;5074359;28;20394;-66
2023/05/24 09:17:45;;;;;;;13.43;4.00;;;;;;;;;;5084329;28;20089;-69
2023/05/24 09:20:12;;;;;;;20.88;4.65;;;;;;;;;;5112385;28;20084;-71
2023/05/24 09:22:40;;;;;;;15.73;4.40;;;;;;;;;;5114381;28;20418;-70
2023/05/24 09:25:08;;;;;;;17.02;4.15;;;;;;;;;;5095141;28;20074;-71
2023/05/24 09:27:36;;;;;;;15.43;4.97;;;;;;;;;;5093568;28;20047;-70
2023/05/24 09:30:07;;;;;;;19.73;4.80;;;;;;;;;;5092501;28;20039;-69
2023/05/24 09:32:33;;;;;;;15.98;4.40;;;;;;;;;;5093892;28;20397;-68
2023/05/24 09:34:58;;;;;;;12.40;3.75;;;;;;;;;;5093856;28;20041;-64
2023/05/24 09:37:27;;;;;;;15.82;4.50;;;;;;;;;;5093490;28;20036;-69
2023/05/24 09:39:54;;;;;;;14.98;4.40;;;;;;;;;;5102964;28;20024;-68
2023/05/24 09:42:23;;;;;;;15.50;3.47;;;;;;;;;;5093748;28;20401;-65
2023/05/24 09:45:10;;;;;;;8.63;2.80;;;;;;;;;;5107077;28;20047;-69
2023/05/24 09:47:40;;;;;;;13.88;3.20;;;;;;;;;;5113932;28;20036;-68
2023/05/24 09:50:12;;;;;;;18.33;4.50;;;;;;;;;;5112205;28;20122;-67
2023/05/24 09:52:39;;;;;;;14.52;4.00;;;;;;;;;;5113699;28;20031;-69
2023/05/24 09:55:15;;;;;;;16.65;3.88;;;;;;;;;;5113191;28;20111;-65
2023/05/24 09:57:50;;;;;;;14.30;3.80;;;;;;;;;;5113992;28;20035;-66
2023/05/24 10:00:22;;;;;;;9.55;2.90;;;;;;;;;;5113411;28;20457;-64
2023/05/24 10:03:13;;;;;;;11.93;3.67;;;;;;;;;;5113457;27;20036;-66
2023/05/24 10:05:43;;;;;;;6.78;3.40;;;;;;;;;;5113605;28;20040;-69
2023/05/24 10:08:09;;;;;;;14.30;3.30;;;;;;;;;;5112314;28;20064;-68
2023/05/24 10:10:36;;;;;;;11.18;3.63;;;;;;;;;;5111695;28;20355;-68
2023/05/24 10:13:02;;;;;;;11.98;2.90;;;;;;;;;;5112058;28;20449;-69
2023/05/24 10:15:30;;;;;;;17.17;3.75;;;;;;;;;;5112801;28;20445;-68
2023/05/24 10:18:00;;;;;;;14.65;3.38;;;;;;;;;;5113032;28;20128;-66
2023/05/24 10:20:27;;;;;;;15.07;3.03;;;;;;;;;;5112064;28;20426;-70
2023/05/24 10:22:58;;;;;;;10.23;3.40;;;;;;;;;;5113127;28;20024;-63
2023/05/24 10:25:33;;;;;;;16.40;3.42;;;;;;;;;;5107676;28;20550;-63
2023/05/24 10:28:11;;;;;;;13.23;3.25;;;;;;;;;;5075602;28;20036;-65
2023/05/24 10:31:09;;;;;;;10.60;2.97;;;;;;;;;;5074168;28;20035;-64
2023/05/24 10:33:38;;;;;;;14.73;3.10;;;;;;;;;;5092984;28;20028;-69
2023/05/24 10:36:07;;;;;;;11.68;3.15;;;;;;;;;;5092628;28;20168;-70
2023/05/24 10:38:33;;;;;;;9.60;2.70;;;;;;;;;;5094772;28;20044;-64
2023/05/24 10:40:59;;;;;;;14.98;2.50;;;;;;;;;;5092531;28;20408;-64
2023/05/24 10:43:25;;;;;;;12.02;2.60;;;;;;;;;;5092545;28;20377;-67
2023/05/24 10:45:50;;;;;;;8.85;2.40;;;;;;;;;;5092408;28;20127;-63
2023/05/24 10:48:16;;;;;;;12.77;2.97;;;;;;;;;;5092292;28;20490;-64
2023/05/24 10:50:43;;;;;;;9.82;2.65;;;;;;;;;;5092414;28;20442;-68
2023/05/24 10:53:16;;;;;;;8.75;2.63;;;;;;;;;;5089971;28;20024;-63
2023/05/24 10:56:05;;;;;;;12.57;2.97;;;;;;;;;;5077535;28;20052;-64
2023/05/24 10:58:53;;;;;;;9.30;3.38;;;;;;;;;;5072514;28;20098;-68
2023/05/24 11:01:30;;;;;;;10.30;2.60;;;;;;;;;;5084107;28;20137;-69
2023/05/24 11:04:09;;;;;;;13.73;2.95;;;;;;;;;;5092855;28;20028;-69
2023/05/24 11:06:48;;;;;;;9.02;2.90;;;;;;;;;;5091047;28;20032;-69
2023/05/24 11:09:19;;;;;;;10.50;3.13;;;;;;;;;;5091552;28;20498;-68
2023/05/24 11:11:46;;;;;;;14.98;3.40;;;;;;;;;;5092705;28;20028;-70
2023/05/24 11:14:13;;;;;;;10.55;2.85;;;;;;;;;;5092590;28;20032;-74
2023/05/24 11:16:39;;;;;;;9.98;2.85;;;;;;;;;;5092718;28;20099;-69
2023/05/24 11:19:18;;;;;;;17.92;3.80;;;;;;;;;;5093066;28;20047;-69
2023/05/24 11:21:52;;;;;;;10.43;3.42;;;;;;;;;;5090726;28;20473;-71
2023/05/24 11:24:19;;;;;;;14.27;3.17;;;;;;;;;;5098264;28;20084;-68
2023/05/24 11:26:45;;;;;;;14.88;3.92;;;;;;;;;;5098686;28;20032;-71
2023/05/24 11:29:20;;;;;;;15.18;3.33;;;;;;;;;;5095226;28;20027;-70
2023/05/24 11:32:00;;;;;;;16.73;3.78;;;;;;;;;;5096301;28;20385;-69
2023/05/24 11:34:26;;;;;;;9.88;3.15;;;;;;;;;;5100741;28;20523;-69
2023/05/24 11:36:52;;;;;;;11.75;4.00;;;;;;;;;;5108793;28;20032;-69
2023/05/24 11:39:17;;;;;;;15.90;3.45;;;;;;;;;;5102074;28;20050;-71
2023/05/24 11:41:43;;;;;;;16.98;4.40;;;;;;;;;;5096312;28;20020;-71
2023/05/24 11:44:11;;;;;;;15.80;4.43;;;;;;;;;;5096218;28;20485;-65
2023/05/24 11:46:38;;;;;;;10.13;3.17;;;;;;;;;;5096620;28;20503;-70
2023/05/24 11:49:05;;;;;;;15.02;3.85;;;;;;;;;;5097121;28;20028;-68
2023/05/24 11:51:37;;;;;;;15.45;3.33;;;;;;;;;;5096461;28;20028;-70
2023/05/24 11:54:02;;;;;;;12.15;3.30;;;;;;;;;;5095566;28;20066;-71
2023/05/24 11:56:29;;;;;;;11.95;3.70;;;;;;;;;;5096907;28;20024;-71
2023/05/24 11:59:18;;;;;;;16.25;3.40;;;;;;;;;;5096633;28;20070;-66
2023/05/24 12:01:43;;;;;;;10.35;2.75;;;;;;;;;;5095866;28;20027;-68
2023/05/24 12:04:10;;;;;;;9.95;2.75;;;;;;;;;;5094457;28;20047;-70
2023/05/24 12:06:40;;;;;;;15.65;3.53;;;;;;;;;;5095578;28;20107;-71
2023/05/24 12:09:07;;;;;;;14.10;3.22;;;;;;;;;;5095465;28;20177;-67
2023/05/24 12:11:41;;;;;;;13.30;2.97;;;;;;;;;;5096617;28;20111;-71
2023/05/24 12:14:13;;;;;;;18.23;3.53;;;;;;;;;;5096428;28;20474;-69
2023/05/24 12:16:41;;;;;;;9.98;2.92;;;;;;;;;;5095541;28;20118;-71
2023/05/24 12:19:07;;;;;;;14.05;3.20;;;;;;;;;;5094636;28;20514;-67
2023/05/24 12:21:34;;;;;;;12.73;3.10;;;;;;;;;;5094790;28;20106;-71
2023/05/24 12:24:13;;;;;;;14.45;3.05;;;;;;;;;;5095969;28;20068;-71
2023/05/24 12:26:43;;;;;;;16.38;3.47;;;;;;;;;;5095232;28;20538;-71
2023/05/24 12:29:13;;;;;;;10.68;2.92;;;;;;;;;;5095528;28;20032;-69
2023/05/24 12:31:43;;;;;;;14.55;2.72;;;;;;;;;;5095494;28;20032;-73
2023/05/24 12:34:17;;;;;;;13.15;3.05;;;;;;;;;;5095325;28;20476;-71
2023/05/24 12:36:43;;;;;;;10.23;2.65;;;;;;;;;;5080684;28;20028;-73
2023/05/24 12:39:35;;;;;;;15.05;3.20;;;;;;;;;;5104033;28;20031;-71
2023/05/24 12:42:02;;;;;;;10.98;3.17;;;;;;;;;;5075018;28;20024;-71
2023/05/24 12:44:28;;;;;;;9.82;3.13;;;;;;;;;;5076789;28;20099;-70
2023/05/24 12:46:54;;;;;;;12.63;3.28;;;;;;;;;;5094842;28;20028;-67
2023/05/24 12:49:22;;;;;;;7.57;2.80;;;;;;;;;;5095018;28;20031;-70
2023/05/24 12:51:47;;;;;;;14.35;3.15;;;;;;;;;;5094874;28;20035;-66
2023/05/24 12:54:13;;;;;;;13.93;3.40;;;;;;;;;;5093787;28;20016;-68
2023/05/24 12:56:39;;;;;;;14.02;3.42;;;;;;;;;;5094948;28;20020;-71
2023/05/24 12:59:04;;;;;;;14.48;3.28;;;;;;;;;;5094592;28;20024;-73
2023/05/24 13:01:30;;;;;;;12.15;3.33;;;;;;;;;;5094388;28;20369;-69
2023/05/24 13:03:55;;;;;;;9.75;3.28;;;;;;;;;;5094146;28;20544;-72
2023/05/24 13:06:21;;;;;;;11.98;3.15;;;;;;;;;;5094723;28;20024;-70
2023/05/24 13:08:46;;;;;;;13.63;3.53;;;;;;;;;;5094592;28;20466;-72
2023/05/24 13:11:12;;;;;;;17.27;3.33;;;;;;;;;;5094515;28;20052;-65
2023/05/24 13:13:37;;;;;;;9.82;3.42;;;;;;;;;;5094455;28;20416;-66
2023/05/24 13:16:06;;;;;;;10.88;3.40;;;;;;;;;;5094533;28;20107;-65
2023/05/24 13:18:32;;;;;;;21.70;4.60;;;;;;;;;;5094280;28;20024;-65
2023/05/24 13:20:59;;;;;;;11.85;3.60;;;;;;;;;;5094123;28;20024;-71
2023/05/24 13:23:27;;;;;;;9.82;3.25;;;;;;;;;;5094257;28;20038;-65
2023/05/24 13:25:53;;;;;;;13.10;3.90;;;;;;;;;;5094393;28;20028;-67
2023/05/24 13:28:18;;;;;;;12.10;3.40;;;;;;;;;;5094212;28;20042;-69
2023/05/24 13:30:46;;;;;;;19.45;4.00;;;;;;;;;;5090693;28;20058;-68
2023/05/24 13:33:12;;;;;;;12.77;3.70;;;;;;;;;;5073689;28;20055;-71
2023/05/24 13:35:38;;;;;;;14.35;3.90;;;;;;;;;;5098312;28;20072;-68
2023/05/24 13:38:04;;;;;;;15.85;3.72;;;;;;;;;;5096464;28;20528;-70
2023/05/24 13:40:29;;;;;;;18.15;3.90;;;;;;;;;;5081338;28;20112;-67
2023/05/24 13:42:55;;;;;;;10.13;3.08;;;;;;;;;;5093961;28;20432;-65
2023/05/24 13:45:22;;;;;;;16.90;3.65;;;;;;;;;;5087926;28;20041;-68
2023/05/24 13:47:47;;;;;;;11.70;3.17;;;;;;;;;;5088867;28;20036;-69
2023/05/24 13:50:13;;;;;;;12.43;3.25;;;;;;;;;;5093410;28;20024;-65
2023/05/24 13:52:38;;;;;;;13.85;3.60;;;;;;;;;;5093427;28;20024;-65
2023/05/24 13:55:04;;;;;;;12.80;3.35;;;;;;;;;;5093529;28;20063;-66
2023/05/24 13:57:30;;;;;;;12.77;3.22;;;;;;;;;;5093294;28;20464;-68
2023/05/24 13:59:57;;;;;;;16.05;3.83;;;;;;;;;;5095157;28;20485;-65
2023/05/24 14:02:23;;;;;;;15.52;3.40;;;;;;;;;;5095251;28;20111;-66
2023/05/24 14:04:48;;;;;;;11.40;3.33;;;;;;;;;;5092416;28;20055;-65
2023/05/24 14:07:14;;;;;;;12.43;3.50;;;;;;;;;;5093208;28;20047;-64
2023/05/24 14:09:40;;;;;;;11.93;4.43;;;;;;;;;;5093219;28;20024;-65
2023/05/24 14:12:07;;;;;;;14.52;4.38;;;;;;;;;;5093551;28;20047;-67
2023/05/24 14:14:33;;;;;;;11.50;3.15;;;;;;;;;;5093408;28;20400;-66
2023/05/24 14:16:59;;;;;;;11.38;3.10;;;;;;;;;;5092969;28;20024;-67
2023/05/24 14:19:24;;;;;;;10.43;3.22;;;;;;;;;;5093340;28;20036;-71
2023/05/24 14:21:50;;;;;;;11.23;2.95;;;;;;;;;;5091909;28;20411;-62
2023/05/24 14:24:16;;;;;;;8.30;2.75;;;;;;;;;;5093219;28;20050;-65
2023/05/24 14:26:41;;;;;;;15.65;3.53;;;;;;;;;;5093225;28;20032;-64
2023/05/24 14:29:10;;;;;;;14.38;3.80;;;;;;;;;;5092958;28;20028;-66
2023/05/24 14:31:40;;;;;;;12.30;2.92;;;;;;;;;;5091616;28;20028;-66
2023/05/24 14:34:12;;;;;;;16.55;3.13;;;;;;;;;;5092913;28;20051;-66
2023/05/24 14:36:40;;;;;;;11.60;3.33;;;;;;;;;;5100999;28;20354;-65